Time;durP1;ratioP1;P1;durP2;ratioP2;P2;SDS_P1;SDS_P2;PMS_P1;PMS_P2;Temp;Humidity;BMP_temperature;BMP_pressure;BME280_temperature;BME280_humidity;BME280_pressure;Samples;Min_cycle;Max_cycle;Signal;HPM_P1;HPM_P2
2022/03/16 00:02:20;;;;;;;10.77;9.67;;;9.80;1.00;;;;;;6189967;23;20134;-82
2022/03/16 00:04:49;;;;;;;13.20;10.33;;;9.90;4.00;;;;;;6167564;23;20216;-87
2022/03/16 00:07:16;;;;;;;10.70;9.57;;;9.80;6.30;;;;;;6189503;23;20185;-83
2022/03/16 00:09:42;;;;;;;11.93;9.70;;;10.10;5.70;;;;;;6160968;23;20146;-88
2022/03/16 00:12:08;;;;;;;13.17;9.80;;;10.10;1.00;;;;;;6188373;23;20161;-88
2022/03/16 00:14:33;;;;;;;10.97;9.90;;;10.10;1.00;;;;;;6188029;23;20173;-85
2022/03/16 00:16:59;;;;;;;10.70;9.43;;;10.10;1.50;;;;;;6161808;23;20153;-85
2022/03/16 00:19:25;;;;;;;11.20;10.10;;;10.30;1.00;;;;;;6160963;23;20194;-86
2022/03/16 00:21:50;;;;;;;11.80;10.57;;;10.50;1.00;;;;;;6187374;23;20134;-87
2022/03/16 00:24:16;;;;;;;12.53;10.13;;;10.60;1.00;;;;;;6187394;23;20570;-87
2022/03/16 00:26:42;;;;;;;12.27;11.07;;;10.50;1.00;;;;;;6187894;23;20138;-87
2022/03/16 00:29:07;;;;;;;11.87;10.70;;;10.50;1.00;;;;;;6186867;23;20444;-88
2022/03/16 00:31:34;;;;;;;11.90;10.70;;;10.50;1.00;;;;;;6187442;23;20192;-86
2022/03/16 00:34:01;;;;;;;11.33;10.23;;;10.50;1.00;;;;;;6188425;23;20177;-86
2022/03/16 00:36:27;;;;;;;10.50;9.47;;;10.50;1.00;;;;;;6188586;23;20193;-87
2022/03/16 00:38:53;;;;;;;12.10;10.87;;;10.50;1.00;;;;;;6137967;23;20228;-88
2022/03/16 00:41:19;;;;;;;12.60;10.27;;;10.50;1.00;;;;;;6188539;23;20141;-84
2022/03/16 00:43:45;;;;;;;11.63;10.43;;;10.20;1.00;;;;;;6187267;23;20137;-87
2022/03/16 00:46:10;;;;;;;11.30;10.20;;;10.00;1.00;;;;;;6187825;23;20253;-86
2022/03/16 00:48:36;;;;;;;11.77;9.60;;;9.80;3.50;;;;;;6188408;23;20138;-83
2022/03/16 00:51:02;;;;;;;11.80;10.63;;;9.60;12.40;;;;;;6186966;23;20173;-87
2022/03/16 00:53:28;;;;;;;11.80;10.60;;;9.50;19.70;;;;;;6161939;23;20157;-85
2022/03/16 00:55:54;;;;;;;11.93;10.73;;;9.40;24.30;;;;;;6189627;23;20169;-87
2022/03/16 00:58:20;;;;;;;11.53;10.33;;;9.40;27.40;;;;;;6189591;23;20173;-87
2022/03/16 01:00:45;;;;;;;12.00;10.80;;;9.40;26.40;;;;;;6188602;23;20188;-87
2022/03/16 01:03:12;;;;;;;12.20;11.00;;;9.40;26.30;;;;;;6187671;23;20138;-86
2022/03/16 01:05:37;;;;;;;12.70;11.07;;;9.50;27.80;;;;;;6187337;23;20170;-86
2022/03/16 01:08:04;;;;;;;11.57;10.40;;;9.30;28.60;;;;;;6187771;23;20239;-83
2022/03/16 01:10:29;;;;;;;11.90;10.50;;;9.30;29.00;;;;;;6188173;23;20140;-86
2022/03/16 01:12:55;;;;;;;13.10;11.80;;;9.20;29.90;;;;;;6191944;23;20157;-86
2022/03/16 01:15:23;;;;;;;13.27;11.70;;;9.10;33.20;;;;;;6192287;23;20195;-84
2022/03/16 01:17:50;;;;;;;14.37;11.67;;;9.10;33.60;;;;;;6208182;23;20133;-86
2022/03/16 01:20:16;;;;;;;12.53;11.33;;;9.00;36.20;;;;;;6210010;23;20472;-87
2022/03/16 01:22:43;;;;;;;12.10;10.87;;;8.90;38.30;;;;;;6194061;23;20157;-87
2022/03/16 01:25:09;;;;;;;12.80;11.40;;;9.10;41.00;;;;;;6192321;23;20141;-87
2022/03/16 01:27:35;;;;;;;13.27;11.97;;;9.00;41.20;;;;;;6208544;23;20209;-83
2022/03/16 01:30:01;;;;;;;12.40;11.20;;;8.90;40.60;;;;;;6216464;22;20153;-83
2022/03/16 01:32:27;;;;;;;13.07;11.77;;;9.00;43.20;;;;;;6216451;22;20193;-82
2022/03/16 01:35:15;;;;;;;13.17;11.87;;;8.90;43.40;;;;;;6216214;22;20189;-81
2022/03/16 01:37:43;;;;;;;12.47;11.17;;;8.70;44.90;;;;;;6210673;22;20198;-88
2022/03/16 01:40:10;;;;;;;13.93;12.53;;;8.70;48.40;;;;;;6208415;22;20118;-87
2022/03/16 01:42:37;;;;;;;14.53;12.60;;;8.70;50.40;;;;;;6178680;22;20125;-82
2022/03/16 01:45:04;;;;;;;13.60;12.20;;;8.70;50.70;;;;;;6217085;22;20130;-80
2022/03/16 01:47:30;;;;;;;14.17;12.67;;;8.70;52.00;;;;;;6213667;22;20146;-77
2022/03/16 01:50:34;;;;;;;14.53;13.00;;;8.80;53.50;;;;;;6198032;23;20452;-84
2022/03/16 01:53:00;;;;;;;12.87;11.57;;;8.90;52.10;;;;;;6191274;23;20161;-83
2022/03/16 01:55:26;;;;;;;13.33;11.93;;;8.90;49.70;;;;;;6190899;23;20505;-85
2022/03/16 01:57:51;;;;;;;13.63;12.27;;;8.80;50.20;;;;;;6164851;23;20173;-87
2022/03/16 02:00:17;;;;;;;13.13;11.83;;;8.70;51.40;;;;;;6190037;23;20181;-87
2022/03/16 02:02:44;;;;;;;13.90;12.60;;;8.70;52.40;;;;;;6191001;23;20631;-85
2022/03/16 02:05:09;;;;;;;14.07;12.67;;;8.70;53.50;;;;;;6190160;23;20244;-87
2022/03/16 02:07:37;;;;;;;14.23;12.80;;;9.00;54.10;;;;;;6190202;23;20232;-86
2022/03/16 02:10:05;;;;;;;13.10;11.80;;;9.00;51.30;;;;;;6190574;23;20493;-84
2022/03/16 02:12:45;;;;;;;14.40;12.87;;;8.90;49.60;;;;;;6190470;23;20212;-86
2022/03/16 02:15:11;;;;;;;14.80;13.30;;;8.80;50.10;;;;;;6192437;23;20252;-85
2022/03/16 02:17:37;;;;;;;13.97;12.60;;;8.60;49.40;;;;;;6191111;23;20137;-87
2022/03/16 02:20:04;;;;;;;12.93;11.63;;;8.70;50.00;;;;;;6201644;22;20150;-78
2022/03/16 02:22:33;;;;;;;14.30;12.83;;;8.60;52.90;;;;;;6211256;22;20138;-84
2022/03/16 02:24:58;;;;;;;13.70;12.40;;;8.60;52.70;;;;;;6184889;23;20150;-86
2022/03/16 02:27:24;;;;;;;14.67;13.23;;;8.70;52.30;;;;;;6201568;23;20138;-83
2022/03/16 02:29:49;;;;;;;13.50;12.20;;;8.70;51.80;;;;;;6191746;23;20193;-85
2022/03/16 02:32:15;;;;;;;13.00;11.70;;;8.60;50.60;;;;;;6165120;23;20451;-88
2022/03/16 02:34:41;;;;;;;16.73;13.63;;;8.60;50.50;;;;;;6190268;23;20176;-86
2022/03/16 02:37:08;;;;;;;15.97;13.47;;;8.50;51.80;;;;;;6190321;23;20470;-84
2022/03/16 02:39:34;;;;;;;15.23;13.67;;;8.60;49.80;;;;;;6191759;23;20150;-86
2022/03/16 02:42:00;;;;;;;14.47;12.80;;;8.80;49.70;;;;;;6190147;23;20138;-82
2022/03/16 02:44:26;;;;;;;15.00;13.40;;;8.60;48.40;;;;;;6165579;23;20130;-86
2022/03/16 02:46:52;;;;;;;15.07;12.60;;;8.50;49.20;;;;;;6165012;23;20141;-86
2022/03/16 02:49:17;;;;;;;13.60;12.20;;;8.50;49.60;;;;;;6189809;23;20149;-86
2022/03/16 02:51:43;;;;;;;15.20;12.80;;;8.50;51.00;;;;;;6166254;23;20153;-81
2022/03/16 02:54:09;;;;;;;15.27;13.23;;;8.60;49.10;;;;;;6202028;23;20165;-85
2022/03/16 02:56:34;;;;;;;14.77;13.27;;;8.60;45.70;;;;;;6200354;23;20527;-81
2022/03/16 02:59:02;;;;;;;14.57;13.07;;;8.70;47.20;;;;;;6191459;23;20444;-83
2022/03/16 03:01:29;;;;;;;14.10;12.67;;;8.40;47.30;;;;;;6191249;23;20579;-87
2022/03/16 03:03:56;;;;;;;13.90;12.37;;;8.30;49.80;;;;;;6191527;23;20193;-87
2022/03/16 03:06:21;;;;;;;14.27;12.87;;;8.40;52.10;;;;;;6191876;23;20248;-86
2022/03/16 03:08:48;;;;;;;13.77;12.27;;;8.30;51.20;;;;;;6192217;23;20164;-86
2022/03/16 03:11:14;;;;;;;14.47;13.07;;;8.20;52.30;;;;;;6190028;23;20137;-87
2022/03/16 03:13:39;;;;;;;14.87;13.30;;;8.10;54.10;;;;;;6188945;23;20141;-83
2022/03/16 03:16:05;;;;;;;14.80;13.33;;;8.10;55.50;;;;;;6188661;23;20180;-86
2022/03/16 03:18:31;;;;;;;15.70;14.10;;;8.30;55.30;;;;;;6162635;23;20623;-85
2022/03/16 03:20:56;;;;;;;14.53;13.03;;;8.20;53.10;;;;;;6188178;23;20444;-88
2022/03/16 03:23:22;;;;;;;14.93;13.17;;;8.20;54.10;;;;;;6188919;23;20610;-87
2022/03/16 03:25:48;;;;;;;16.97;13.83;;;8.10;55.50;;;;;;6188875;23;20192;-86
2022/03/16 03:28:15;;;;;;;14.43;12.93;;;8.10;56.60;;;;;;6188932;23;20204;-84
2022/03/16 03:30:40;;;;;;;14.97;13.37;;;8.20;55.30;;;;;;6161990;23;20157;-79
2022/03/16 03:33:06;;;;;;;14.80;13.20;;;8.40;54.30;;;;;;6188145;23;20138;-86
2022/03/16 03:35:33;;;;;;;15.83;14.13;;;8.60;49.60;;;;;;6188273;23;20174;-86
2022/03/16 03:37:59;;;;;;;15.60;14.00;;;8.80;46.10;;;;;;6188580;23;20146;-87
2022/03/16 03:40:25;;;;;;;15.13;13.63;;;9.00;43.00;;;;;;6196786;23;20161;-81
2022/03/16 03:42:51;;;;;;;15.27;13.73;;;8.90;39.80;;;;;;6214029;22;20122;-79
2022/03/16 03:45:17;;;;;;;14.67;13.17;;;8.80;36.10;;;;;;6211768;23;20138;-84
2022/03/16 03:47:48;;;;;;;15.43;13.70;;;8.90;35.10;;;;;;6195239;23;20567;-87
2022/03/16 03:50:16;;;;;;;16.50;13.20;;;8.90;34.30;;;;;;6188383;23;20217;-82
2022/03/16 03:52:41;;;;;;;14.20;12.47;;;9.00;34.60;;;;;;6162182;23;20548;-87
2022/03/16 03:55:08;;;;;;;16.07;13.50;;;8.90;36.00;;;;;;6189947;23;20173;-84
2022/03/16 03:57:34;;;;;;;15.20;13.70;;;8.90;34.10;;;;;;6210639;22;20146;-77
2022/03/16 03:59:59;;;;;;;15.17;13.57;;;9.00;33.20;;;;;;6212379;22;20149;-78
2022/03/16 04:02:53;;;;;;;14.47;13.07;;;9.10;28.60;;;;;;6178043;23;20150;-86
2022/03/16 04:05:25;;;;;;;14.50;13.10;;;9.20;27.40;;;;;;6190049;23;20174;-86
2022/03/16 04:07:50;;;;;;;13.97;12.60;;;9.30;25.60;;;;;;6188486;23;20166;-87
2022/03/16 04:10:16;;;;;;;15.50;13.07;;;9.30;20.70;;;;;;6187617;23;20145;-86
2022/03/16 04:12:43;;;;;;;14.90;13.43;;;9.20;18.90;;;;;;6187534;23;20196;-85
2022/03/16 04:15:09;;;;;;;15.47;13.20;;;9.10;18.70;;;;;;6188612;23;20503;-84
2022/03/16 04:17:35;;;;;;;14.73;13.23;;;9.00;20.80;;;;;;6188910;23;20149;-80
2022/03/16 04:20:00;;;;;;;14.43;13.00;;;9.00;24.30;;;;;;6189480;23;20471;-84
2022/03/16 04:22:27;;;;;;;15.27;13.77;;;9.00;25.20;;;;;;6163165;23;20597;-86
2022/03/16 04:24:53;;;;;;;15.80;14.27;;;9.10;25.40;;;;;;6205031;22;20134;-80
2022/03/16 04:27:20;;;;;;;14.97;13.37;;;9.30;22.70;;;;;;6213317;22;20138;-86
2022/03/16 04:29:46;;;;;;;15.33;13.77;;;9.20;19.20;;;;;;6212685;22;20166;-87
2022/03/16 04:32:15;;;;;;;14.60;13.17;;;9.50;17.50;;;;;;6211003;22;20156;-81
2022/03/16 04:34:44;;;;;;;15.10;13.50;;;9.20;17.40;;;;;;6208728;23;20164;-86
2022/03/16 04:37:44;;;;;;;15.23;13.73;;;9.30;18.20;;;;;;6189031;23;20145;-86
2022/03/16 04:40:10;;;;;;;16.00;14.00;;;9.30;15.90;;;;;;6187639;23;20225;-78
2022/03/16 04:42:35;;;;;;;16.03;14.33;;;9.30;16.00;;;;;;6187264;23;20633;-87
2022/03/16 04:45:01;;;;;;;15.43;13.83;;;9.40;15.40;;;;;;6187071;23;20138;-86
2022/03/16 04:47:27;;;;;;;15.00;13.47;;;9.40;12.20;;;;;;6186484;23;20499;-86
2022/03/16 04:49:52;;;;;;;14.97;13.30;;;9.40;14.30;;;;;;6187479;23;20166;-87
2022/03/16 04:52:18;;;;;;;15.07;13.57;;;9.40;10.20;;;;;;6187656;23;20585;-86
2022/03/16 04:54:44;;;;;;;14.63;13.10;;;9.50;9.20;;;;;;6188243;23;20512;-82
2022/03/16 04:57:09;;;;;;;15.67;14.03;;;9.30;5.10;;;;;;6187795;23;20581;-87
2022/03/16 04:59:35;;;;;;;15.97;14.37;;;8.90;15.40;;;;;;6187575;23;20174;-86
2022/03/16 05:02:01;;;;;;;15.90;14.20;;;9.00;21.90;;;;;;6189141;23;20510;-85
2022/03/16 05:04:26;;;;;;;16.67;13.87;;;8.80;22.20;;;;;;6188539;23;20205;-85
2022/03/16 05:06:52;;;;;;;14.97;13.37;;;8.80;25.80;;;;;;6187656;23;20188;-82
2022/03/16 05:09:18;;;;;;;15.93;14.30;;;8.80;24.20;;;;;;6188400;23;20146;-87
2022/03/16 05:11:44;;;;;;;17.93;14.87;;;8.90;25.60;;;;;;6187288;23;20138;-87
2022/03/16 05:14:10;;;;;;;14.63;13.17;;;9.20;21.90;;;;;;6160661;23;20189;-86
2022/03/16 05:16:37;;;;;;;17.30;14.40;;;9.10;22.20;;;;;;6161342;23;20154;-87
2022/03/16 05:19:03;;;;;;;16.43;14.23;;;8.80;23.40;;;;;;6161586;23;20253;-82
2022/03/16 05:21:31;;;;;;;16.33;14.63;;;8.80;24.10;;;;;;6188448;23;20137;-84
2022/03/16 05:23:57;;;;;;;15.87;13.60;;;8.80;26.30;;;;;;6189273;23;20145;-77
2022/03/16 05:26:22;;;;;;;15.93;14.33;;;8.70;27.20;;;;;;6188783;23;20146;-83
2022/03/16 05:28:48;;;;;;;15.93;14.33;;;8.80;29.30;;;;;;6189083;23;20578;-82
2022/03/16 05:31:14;;;;;;;14.40;12.90;;;8.60;29.60;;;;;;6187666;23;20217;-85
2022/03/16 05:33:39;;;;;;;15.33;13.73;;;8.70;31.90;;;;;;6187346;23;20138;-80
2022/03/16 05:36:05;;;;;;;15.87;14.17;;;8.50;34.50;;;;;;6189314;23;20173;-85
2022/03/16 05:38:31;;;;;;;16.37;14.67;;;8.40;38.40;;;;;;6161501;23;20157;-86
2022/03/16 05:40:56;;;;;;;15.93;14.23;;;8.40;40.40;;;;;;6187383;23;20130;-88
2022/03/16 05:43:22;;;;;;;16.53;14.13;;;8.30;40.50;;;;;;6160994;23;20146;-87
2022/03/16 05:45:51;;;;;;;16.03;14.27;;;8.40;42.60;;;;;;6193597;23;20582;-87
2022/03/16 05:48:17;;;;;;;17.40;14.77;;;8.30;41.50;;;;;;6203312;23;20153;-80
2022/03/16 05:50:45;;;;;;;17.13;14.77;;;8.40;41.20;;;;;;6196660;23;20154;-87
2022/03/16 05:53:17;;;;;;;17.60;15.20;;;8.40;41.10;;;;;;6210534;22;20206;-78
2022/03/16 05:56:00;;;;;;;16.77;14.77;;;8.40;42.20;;;;;;6203830;23;20174;-77
2022/03/16 05:58:27;;;;;;;16.97;15.17;;;8.30;41.70;;;;;;6193153;23;20562;-83
2022/03/16 06:00:53;;;;;;;16.20;14.50;;;8.30;42.00;;;;;;6195533;23;20192;-85
2022/03/16 06:03:19;;;;;;;17.67;15.13;;;8.30;42.50;;;;;;6193215;23;20138;-88
2022/03/16 06:05:45;;;;;;;17.93;14.90;;;8.30;41.80;;;;;;6193499;23;20192;-87
2022/03/16 06:08:11;;;;;;;17.33;15.13;;;8.40;44.00;;;;;;6208553;23;20149;-78
2022/03/16 06:10:38;;;;;;;17.50;14.87;;;8.10;45.50;;;;;;6179926;23;20459;-86
2022/03/16 06:13:06;;;;;;;16.93;14.93;;;8.10;48.00;;;;;;6178344;23;20149;-79
2022/03/16 06:15:46;;;;;;;16.67;14.40;;;8.10;48.50;;;;;;6209556;23;20260;-76
2022/03/16 06:18:12;;;;;;;16.83;15.07;;;8.10;48.90;;;;;;6210291;23;20130;-79
2022/03/16 06:20:39;;;;;;;16.63;14.90;;;8.20;50.00;;;;;;6209049;23;20208;-78
2022/03/16 06:23:05;;;;;;;16.63;14.77;;;8.30;48.50;;;;;;6159973;23;20185;-80
2022/03/16 06:25:34;;;;;;;16.10;14.40;;;8.20;47.10;;;;;;6209338;23;20157;-77
2022/03/16 06:28:00;;;;;;;16.93;15.00;;;8.20;46.40;;;;;;6209505;23;20140;-79
2022/03/16 06:30:27;;;;;;;19.10;14.70;;;8.20;45.80;;;;;;6211801;23;20125;-83
2022/03/16 06:32:52;;;;;;;16.40;14.70;;;8.10;45.10;;;;;;6210466;22;20138;-83
2022/03/16 06:35:18;;;;;;;16.27;14.57;;;8.30;47.90;;;;;;6210076;22;20269;-86
2022/03/16 06:37:45;;;;;;;18.57;14.37;;;8.10;47.70;;;;;;6205728;23;20141;-84
2022/03/16 06:40:13;;;;;;;16.43;14.37;;;8.10;48.20;;;;;;6184712;23;20232;-83
2022/03/16 06:42:53;;;;;;;18.00;14.87;;;8.20;50.10;;;;;;6204939;23;20129;-84
2022/03/16 06:45:19;;;;;;;16.90;14.43;;;8.10;50.40;;;;;;6211856;23;20185;-81
2022/03/16 06:47:45;;;;;;;16.93;14.80;;;8.20;49.40;;;;;;6209565;23;20188;-79
2022/03/16 06:50:11;;;;;;;16.87;15.07;;;8.40;47.30;;;;;;6210163;23;20186;-76
2022/03/16 06:52:39;;;;;;;17.93;15.10;;;8.30;45.70;;;;;;6209633;23;20138;-79
2022/03/16 06:55:05;;;;;;;17.63;15.23;;;8.30;45.10;;;;;;6182490;23;20182;-79
2022/03/16 06:57:31;;;;;;;17.20;15.20;;;8.20;46.40;;;;;;6206467;23;20194;-80
2022/03/16 06:59:56;;;;;;;17.87;14.10;;;8.30;48.20;;;;;;6209702;23;20169;-78
2022/03/16 07:02:22;;;;;;;17.83;15.03;;;8.40;47.80;;;;;;6208843;23;20138;-81
2022/03/16 07:04:47;;;;;;;16.60;14.87;;;8.60;45.80;;;;;;6182850;23;20150;-82
2022/03/16 07:07:14;;;;;;;21.17;15.83;;;8.70;41.90;;;;;;6210873;23;20184;-86
2022/03/16 07:09:43;;;;;;;16.77;14.73;;;8.90;37.40;;;;;;6206692;23;20166;-78
2022/03/16 07:12:10;;;;;;;16.70;14.13;;;9.10;31.10;;;;;;6198266;23;20575;-79
2022/03/16 07:14:35;;;;;;;20.97;15.17;;;9.30;27.90;;;;;;6206786;23;20178;-80
2022/03/16 07:17:04;;;;;;;23.87;15.27;;;9.50;21.10;;;;;;6205386;23;20162;-78
2022/03/16 07:19:30;;;;;;;20.23;15.00;;;9.40;11.30;;;;;;6204358;23;20217;-78
2022/03/16 07:21:57;;;;;;;17.87;14.93;;;9.40;5.70;;;;;;6174687;23;20248;-78
2022/03/16 07:24:26;;;;;;;15.30;13.60;;;9.30;7.50;;;;;;6209211;23;20137;-76
2022/03/16 07:26:56;;;;;;;15.63;13.73;;;9.20;7.50;;;;;;6209107;23;20161;-80
2022/03/16 07:29:28;;;;;;;17.80;14.73;;;9.30;9.90;;;;;;6206587;23;20209;-77
2022/03/16 07:31:57;;;;;;;16.97;14.83;;;9.10;12.00;;;;;;6202114;23;20222;-78
2022/03/16 07:34:54;;;;;;;17.83;15.00;;;9.10;16.70;;;;;;6201386;23;20168;-81
2022/03/16 07:40:42;;;;;;;16.60;13.77;;;9.30;15.40;;;;;;6196857;23;20144;-79
2022/03/16 07:43:11;;;;;;;16.73;13.87;;;9.20;12.90;;;;;;6194365;23;20156;-79
2022/03/16 07:45:43;;;;;;;16.67;14.13;;;9.50;9.50;;;;;;6192667;23;20158;-81
2022/03/16 07:48:10;;;;;;;16.70;14.93;;;9.60;6.50;;;;;;6191230;23;20220;-81
2022/03/16 07:50:36;;;;;;;16.47;12.97;;;9.90;4.20;;;;;;6190142;23;20153;-83
2022/03/16 07:53:02;;;;;;;16.40;14.67;;;10.10;1.00;;;;;;6163893;23;20154;-80
2022/03/16 07:55:37;;;;;;;17.93;14.57;;;10.10;1.00;;;;;;6165149;23;20188;-81
2022/03/16 07:58:24;;;;;;;18.73;13.20;;;10.40;1.00;;;;;;6190221;23;20137;-85
2022/03/16 08:00:50;;;;;;;18.93;13.43;;;10.50;1.00;;;;;;6197368;23;20134;-86
2022/03/16 08:03:15;;;;;;;14.97;12.77;;;10.50;1.00;;;;;;6192821;23;20153;-86
2022/03/16 08:06:00;;;;;;;14.70;13.07;;;10.40;1.00;;;;;;6166735;23;20193;-81
2022/03/16 08:08:29;;;;;;;18.80;14.50;;;10.10;1.00;;;;;;6193989;23;20189;-85
2022/03/16 08:11:01;;;;;;;17.43;14.60;;;10.00;1.00;;;;;;6204395;23;20138;-79
2022/03/16 08:13:39;;;;;;;19.07;14.30;;;10.00;1.00;;;;;;6198600;23;20145;-80
2022/03/16 08:16:39;;;;;;;19.43;13.87;;;10.20;1.00;;;;;;6168132;23;20185;-81
2022/03/16 08:19:21;;;;;;;21.07;14.23;;;10.40;1.00;;;;;;6193026;23;20157;-83
2022/03/16 08:21:59;;;;;;;15.70;12.97;;;10.70;1.00;;;;;;6201037;23;20130;-80
2022/03/16 08:24:31;;;;;;;17.90;13.60;;;10.60;1.00;;;;;;6204880;23;20141;-81
2022/03/16 08:27:01;;;;;;;17.13;13.23;;;10.40;1.00;;;;;;6203507;23;20158;-79
2022/03/16 08:29:35;;;;;;;17.17;13.60;;;10.40;1.00;;;;;;6206297;23;20158;-80
2022/03/16 08:32:03;;;;;;;18.67;13.27;;;10.70;1.00;;;;;;6208797;23;20146;-80
2022/03/16 08:34:29;;;;;;;16.03;13.13;;;10.90;1.00;;;;;;6203188;23;20169;-81
2022/03/16 08:36:55;;;;;;;21.90;12.90;;;11.10;1.00;;;;;;6165670;23;20189;-81
2022/03/16 08:39:24;;;;;;;17.30;13.37;;;11.30;1.00;;;;;;6196746;23;20140;-78
2022/03/16 08:41:53;;;;;;;16.13;13.60;;;11.50;1.00;;;;;;6192501;23;20140;-80
2022/03/16 08:44:25;;;;;;;15.83;12.27;;;11.70;1.00;;;;;;6188214;23;20213;-83
2022/03/16 08:46:51;;;;;;;17.37;13.67;;;11.90;1.00;;;;;;6161704;23;20157;-83
2022/03/16 08:49:50;;;;;;;13.63;12.03;;;11.80;1.00;;;;;;6161705;23;20551;-81
2022/03/16 08:52:22;;;;;;;18.47;13.23;;;11.70;1.00;;;;;;6187538;23;20189;-81
2022/03/16 08:54:48;;;;;;;16.80;12.43;;;11.90;1.00;;;;;;6188304;23;20184;-81
2022/03/16 08:57:15;;;;;;;18.90;13.83;;;12.00;1.00;;;;;;6187031;23;20134;-85
2022/03/16 08:59:41;;;;;;;18.60;12.90;;;12.10;1.00;;;;;;6185271;23;20138;-82
2022/03/16 09:02:08;;;;;;;17.23;13.93;;;12.10;1.00;;;;;;6160209;23;20232;-80
2022/03/16 09:04:34;;;;;;;19.93;13.17;;;12.20;1.00;;;;;;6186479;23;20145;-81
2022/03/16 09:07:02;;;;;;;18.53;14.20;;;12.30;1.00;;;;;;6186458;23;20217;-80
2022/03/16 09:09:28;;;;;;;15.70;13.27;;;12.30;1.00;;;;;;6186417;23;20207;-85
2022/03/16 09:11:55;;;;;;;17.00;12.33;;;12.40;1.00;;;;;;6186783;23;20145;-82
2022/03/16 09:14:23;;;;;;;15.83;13.07;;;12.60;99.90;;;;;;6160119;23;20205;-85
2022/03/16 09:16:50;;;;;;;20.27;14.20;;;12.80;99.90;;;;;;6159477;23;20544;-84
2022/03/16 09:19:17;;;;;;;18.23;14.67;;;12.70;99.90;;;;;;6189140;23;20593;-82
2022/03/16 09:21:47;;;;;;;18.07;13.27;;;12.90;99.90;;;;;;6186375;23;20138;-81
2022/03/16 09:24:13;;;;;;;20.43;13.67;;;13.30;99.90;;;;;;6186274;23;20143;-81
2022/03/16 09:26:40;;;;;;;18.20;13.73;;;13.40;99.90;;;;;;6185840;23;20138;-82
2022/03/16 09:29:08;;;;;;;17.87;12.97;;;13.50;99.90;;;;;;6185977;23;20134;-81
2022/03/16 09:31:39;;;;;;;15.80;12.87;;;13.60;1.00;;;;;;6135546;23;20154;-84
2022/03/16 09:34:07;;;;;;;16.87;13.17;;;13.70;1.00;;;;;;6162146;23;20587;-82
2022/03/16 09:36:42;;;;;;;17.30;12.73;;;13.80;1.00;;;;;;6163218;23;20192;-86
2022/03/16 09:39:08;;;;;;;16.53;12.90;;;13.90;99.90;;;;;;6189529;23;20325;-85
2022/03/16 09:41:36;;;;;;;15.90;12.20;;;14.10;1.00;;;;;;6164353;23;20154;-84
2022/03/16 09:44:02;;;;;;;13.33;11.97;;;14.20;1.00;;;;;;6189265;23;20142;-83
2022/03/16 09:46:35;;;;;;;17.17;11.67;;;14.20;1.00;;;;;;6189971;23;20224;-86
2022/03/16 09:49:03;;;;;;;13.57;11.23;;;14.30;99.90;;;;;;6163181;23;20147;-84
2022/03/16 09:51:34;;;;;;;16.43;12.40;;;14.40;1.00;;;;;;6188579;23;20595;-85
2022/03/16 09:54:01;;;;;;;19.23;12.77;;;14.30;1.00;;;;;;6189352;23;20624;-81
2022/03/16 09:56:28;;;;;;;19.13;12.97;;;14.50;1.00;;;;;;6190775;23;20144;-83
2022/03/16 09:58:54;;;;;;;15.60;11.70;;;14.40;99.90;;;;;;6163972;23;20156;-82
2022/03/16 10:01:20;;;;;;;22.03;12.30;;;14.50;99.90;;;;;;6189276;23;20138;-84
2022/03/16 10:03:50;;;;;;;16.47;12.57;;;14.40;34.10;;;;;;6138002;23;20171;-88
2022/03/16 10:06:18;;;;;;;15.13;11.97;;;14.40;99.90;;;;;;6163084;23;20246;-88
2022/03/16 10:13:13;;;;;;;16.43;11.47;;;14.50;99.90;;;;;;6162637;23;20230;-82
2022/03/16 10:14:14;;;;;;;23.37;12.20;;;14.60;99.90;;;;;;6188494;23;20180;-82
2022/03/16 10:19:51;;;;;;;15.70;12.50;;;14.60;1.00;;;;;;6188445;23;20149;-83
2022/03/16 10:22:30;;;;;;;20.70;12.77;;;14.70;1.00;;;;;;6163311;23;20157;-81
2022/03/16 10:25:00;;;;;;;15.90;11.83;;;14.70;1.00;;;;;;6182290;23;20148;-77
2022/03/16 10:27:27;;;;;;;15.13;12.10;;;14.60;1.00;;;;;;6207482;23;20138;-75
2022/03/16 10:29:54;;;;;;;16.03;11.70;;;14.60;21.40;;;;;;6183987;23;20149;-79
2022/03/16 10:32:25;;;;;;;14.97;12.40;;;14.60;99.90;;;;;;6202080;23;20142;-83
2022/03/16 10:35:05;;;;;;;18.27;11.67;;;14.70;99.90;;;;;;6191979;23;20174;-85
2022/03/16 10:37:38;;;;;;;16.33;12.40;;;14.80;99.90;;;;;;6189141;23;20467;-85
2022/03/16 10:40:14;;;;;;;14.53;12.03;;;14.90;99.90;;;;;;6190796;23;20150;-78
2022/03/16 10:48:18;;;;;;;14.83;12.27;;;15.40;42.00;;;;;;6191805;23;20145;-83
2022/03/16 10:50:47;;;;;;;16.87;12.10;;;15.30;1.00;;;;;;6188328;23;20148;-79
2022/03/16 10:53:16;;;;;;;20.37;12.53;;;15.40;1.00;;;;;;6197517;23;20148;-76
2022/03/16 10:55:44;;;;;;;17.30;11.60;;;15.40;1.00;;;;;;6179028;23;20185;-79
2022/03/16 10:58:14;;;;;;;15.40;12.47;;;15.10;99.90;;;;;;6204917;23;20134;-78
2022/03/16 11:00:41;;;;;;;16.90;12.77;;;14.70;1.00;;;;;;6209288;23;20122;-78
2022/03/16 11:03:15;;;;;;;16.70;11.87;;;14.50;99.90;;;;;;6207178;23;20166;-80
2022/03/16 11:05:42;;;;;;;15.83;12.00;;;14.60;7.20;;;;;;6202382;23;20476;-81
2022/03/16 11:08:10;;;;;;;16.60;12.37;;;14.90;99.90;;;;;;6201158;23;20161;-85
2022/03/16 11:10:53;;;;;;;17.47;11.73;;;15.10;99.90;;;;;;6200323;23;20167;-81
2022/03/16 11:13:32;;;;;;;19.87;12.10;;;15.20;99.90;;;;;;6189340;23;20240;-87
2022/03/16 11:16:05;;;;;;;17.63;12.30;;;15.10;99.90;;;;;;6189661;23;20169;-82
2022/03/16 11:18:32;;;;;;;16.77;12.57;;;15.20;99.90;;;;;;6189020;23;20161;-83
2022/03/16 11:21:05;;;;;;;18.50;12.67;;;15.10;1.00;;;;;;6189035;23;20206;-87
2022/03/16 11:26:49;;;;;;;16.03;12.87;;;15.20;99.90;;;;;;6189133;23;20212;-88
2022/03/16 11:29:45;;;;;;;17.50;12.37;;;15.20;99.90;;;;;;6189862;23;20142;-85
2022/03/16 11:32:18;;;;;;;20.20;15.10;;;15.40;99.90;;;;;;6162710;23;20232;-85
2022/03/16 11:34:55;;;;;;;16.27;12.63;;;15.40;1.00;;;;;;6190836;23;20240;-88
2022/03/16 11:37:33;;;;;;;16.93;13.07;;;15.20;99.90;;;;;;6190954;23;20153;-88
2022/03/16 11:40:11;;;;;;;19.00;12.93;;;14.90;99.90;;;;;;6190921;23;20167;-84
2022/03/16 11:43:11;;;;;;;20.17;12.43;;;14.80;1.00;;;;;;6190922;23;20145;-89
2022/03/16 11:45:43;;;;;;;16.60;12.87;;;14.60;99.90;;;;;;6191168;23;20219;-86
2022/03/16 11:48:34;;;;;;;19.80;12.83;;;14.80;99.90;;;;;;6192730;23;20158;-83
2022/03/16 11:51:08;;;;;;;18.50;12.63;;;14.90;1.00;;;;;;6192042;23;20138;-85
2022/03/16 11:56:31;;;;;;;18.00;12.93;;;14.70;99.90;;;;;;6192965;23;20182;-88
2022/03/16 11:59:05;;;;;;;19.77;17.20;;;14.80;99.90;;;;;;6192329;23;20129;-87
2022/03/16 12:01:32;;;;;;;17.90;12.57;;;15.10;59.10;;;;;;6192763;23;20172;-86
2022/03/16 12:03:58;;;;;;;15.97;12.47;;;15.10;1.00;;;;;;6188989;23;20195;-86
2022/03/16 12:06:30;;;;;;;15.73;12.70;;;15.30;1.00;;;;;;6189608;23;20169;-78
2022/03/16 12:08:59;;;;;;;18.37;12.63;;;15.40;99.90;;;;;;6191128;23;20547;-87
2022/03/16 12:14:10;;;;;;;19.10;12.93;;;15.40;99.90;;;;;;6190345;23;20144;-88
2022/03/16 12:16:42;;;;;;;20.13;14.30;;;15.20;99.90;;;;;;6189119;23;20148;-87
2022/03/16 12:19:30;;;;;;;20.83;12.70;;;15.00;1.00;;;;;;6190721;23;20189;-87
2022/03/16 12:21:57;;;;;;;16.77;12.73;;;15.10;1.00;;;;;;6189580;23;20281;-87
2022/03/16 12:30:10;;;;;;;16.20;12.83;;;15.20;1.00;;;;;;6188065;23;20150;-78
2022/03/16 12:32:36;;;;;;;19.53;15.83;;;15.00;99.90;;;;;;6187450;23;20137;-83
2022/03/16 12:35:06;;;;;;;21.77;12.87;;;14.90;1.00;;;;;;6188958;23;20166;-83
2022/03/16 12:37:32;;;;;;;18.90;13.00;;;14.80;99.90;;;;;;6186893;23;20168;-83
2022/03/16 12:39:58;;;;;;;17.87;12.43;;;14.90;99.90;;;;;;6165598;23;20138;-87
2022/03/16 12:42:33;;;;;;;15.20;12.40;;;15.10;1.00;;;;;;6204436;23;20138;-84
2022/03/16 12:45:12;;;;;;;18.47;11.73;;;15.10;1.00;;;;;;6198706;23;20159;-82
2022/03/16 12:48:03;;;;;;;16.00;11.30;;;15.00;1.00;;;;;;6190303;23;20453;-87
2022/03/16 12:50:29;;;;;;;16.27;11.50;;;14.90;1.00;;;;;;6188575;23;20134;-81
2022/03/16 12:52:54;;;;;;;15.50;12.03;;;14.80;1.00;;;;;;6189112;23;20453;-87
2022/03/16 12:55:21;;;;;;;17.43;12.13;;;14.90;48.90;;;;;;6189766;23;20169;-85
2022/03/16 12:57:54;;;;;;;17.90;11.53;;;15.10;1.00;;;;;;6200577;23;20130;-80
2022/03/16 13:00:20;;;;;;;14.30;10.67;;;15.30;30.30;;;;;;6202104;23;20191;-82
2022/03/16 13:02:47;;;;;;;27.47;12.17;;;15.20;1.00;;;;;;6199161;23;20463;-87
2022/03/16 13:05:42;;;;;;;16.33;12.27;;;15.00;1.00;;;;;;6195541;23;20613;-81
2022/03/16 13:08:08;;;;;;;16.47;11.83;;;15.30;99.90;;;;;;6192933;23;20168;-82
2022/03/16 13:13:27;;;;;;;15.43;11.63;;;15.60;99.90;;;;;;6193245;23;20152;-88
2022/03/16 13:16:01;;;;;;;14.47;10.77;;;15.70;99.90;;;;;;6194359;23;20256;-83
2022/03/16 13:18:33;;;;;;;17.03;11.93;;;15.90;1.00;;;;;;6196119;23;20157;-88